JST654 YMML-YSCB

Flight info

Callsign JST654
Flight time 0h 42m
Altitude 35000
Route DOSEL Y59 ARRAN
Aircraft A320/M-SDE3FGHIRWY/LB1

Departure

Time 2026-04-30 10:12
Airport Melbourne Airport (YMML)

Arrival

Time 2026-04-30 10:54
Airport Canberra Airport (YSCB)
Time Latitude Longitude Altitude Speed Heading
2026-04-30 09:57 -37.67627 144.84799 376 ft 0 kts 352°
2026-04-30 10:01 -37.67630 144.84800 376 ft 2 kts 352°
2026-04-30 10:02 -37.67683 144.84810 374 ft 4 kts 347°
2026-04-30 10:02 -37.67708 144.84821 373 ft 4 kts 327°
2026-04-30 10:02 -37.67721 144.84840 373 ft 3 kts 262°
2026-04-30 10:02 -37.67723 144.84817 373 ft 4 kts 262°
2026-04-30 10:03 -37.67727 144.84789 372 ft 2 kts 261°
2026-04-30 10:03 -37.67731 144.84757 372 ft 4 kts 261°
2026-04-30 10:03 -37.67735 144.84723 372 ft 4 kts 261°
2026-04-30 10:03 -37.67736 144.84710 372 ft 1 kts 261°
2026-04-30 10:09 -37.67737 144.84703 371 ft 3 kts 261°
2026-04-30 10:09 -37.67742 144.84660 370 ft 7 kts 261°
2026-04-30 10:09 -37.67768 144.84605 369 ft 9 kts 186°
2026-04-30 10:09 -37.67833 144.84546 367 ft 15 kts 228°
2026-04-30 10:10 -37.67834 144.84451 364 ft 11 kts 263°
2026-04-30 10:10 -37.67847 144.84336 362 ft 15 kts 262°
2026-04-30 10:10 -37.67864 144.84190 359 ft 15 kts 261°
2026-04-30 10:10 -37.67873 144.84118 362 ft 5 kts 261°
2026-04-30 10:11 -37.67882 144.84048 360 ft 11 kts 261°
2026-04-30 10:11 -37.67869 144.83968 358 ft 7 kts 334°
2026-04-30 10:11 -37.67848 144.83962 358 ft 2 kts 351°
2026-04-30 10:11 -37.67733 144.83941 365 ft 49 kts 352°
2026-04-30 10:12 -37.67160 144.83834 382 ft 114 kts 351°
2026-04-30 10:12 -37.66222 144.83663 551 ft 148 kts 352°
2026-04-30 10:12 -37.65198 144.83465 1233 ft 150 kts 352°
2026-04-30 10:12 -37.64158 144.83258 1938 ft 151 kts 353°
2026-04-30 10:13 -37.63100 144.83051 2496 ft 161 kts 352°
2026-04-30 10:13 -37.61915 144.82822 2821 ft 184 kts 352°
2026-04-30 10:13 -37.60580 144.82565 3160 ft 210 kts 352°
2026-04-30 10:13 -37.59041 144.82471 3681 ft 235 kts
2026-04-30 10:14 -37.57489 144.83250 4553 ft 245 kts 22°
2026-04-30 10:14 -37.55939 144.84201 5541 ft 250 kts 22°
2026-04-30 10:14 -37.52725 144.86160 7394 ft 262 kts 22°
2026-04-30 10:15 -37.51069 144.87165 8303 ft 267 kts 21°
2026-04-30 10:15 -37.49379 144.88191 9187 ft 272 kts 21°
2026-04-30 10:15 -37.47653 144.89238 10081 ft 277 kts 21°
2026-04-30 10:15 -37.45859 144.90344 10512 ft 300 kts 25°
2026-04-30 10:16 -37.44048 144.91873 10792 ft 328 kts 36°
2026-04-30 10:16 -37.42369 144.93982 11074 ft 354 kts 47°
2026-04-30 10:16 -37.40938 144.96506 11662 ft 363 kts 52°
2026-04-30 10:17 -37.37995 145.01751 13132 ft 370 kts 51°
2026-04-30 10:17 -37.34967 145.07077 14552 ft 378 kts 51°
2026-04-30 10:17 -37.33430 145.09777 15181 ft 382 kts 51°
2026-04-30 10:18 -37.31881 145.12500 15802 ft 385 kts 51°
2026-04-30 10:18 -37.30320 145.15252 16414 ft 388 kts 51°
2026-04-30 10:18 -37.28747 145.18028 17039 ft 392 kts 51°
2026-04-30 10:19 -37.25554 145.23654 18296 ft 399 kts 51°
2026-04-30 10:19 -37.23955 145.26472 18883 ft 403 kts 51°
2026-04-30 10:19 -37.22322 145.29344 19462 ft 406 kts 51°
2026-04-30 10:19 -37.20675 145.32235 20031 ft 409 kts 51°
2026-04-30 10:20 -37.19010 145.35146 20574 ft 413 kts 51°
2026-04-30 10:20 -37.15696 145.40954 22098 ft 407 kts 50°
2026-04-30 10:20 -37.14041 145.43846 22635 ft 410 kts 51°
2026-04-30 10:21 -37.12371 145.46758 23147 ft 413 kts 51°
2026-04-30 10:21 -37.10682 145.49696 23653 ft 417 kts 51°
2026-04-30 10:21 -37.08978 145.52654 24105 ft 421 kts 51°
2026-04-30 10:21 -37.07263 145.55633 24551 ft 423 kts 51°
2026-04-30 10:22 -37.05541 145.58627 25012 ft 425 kts 50°
2026-04-30 10:22 -37.03805 145.61645 25326 ft 431 kts 50°
2026-04-30 10:22 -37.02026 145.64730 25451 ft 442 kts 50°
2026-04-30 10:22 -37.00238 145.67825 25677 ft 448 kts 51°
2026-04-30 10:23 -36.98410 145.70993 26032 ft 451 kts 51°
2026-04-30 10:23 -36.96569 145.74182 26427 ft 454 kts 51°
2026-04-30 10:23 -36.94717 145.77388 26826 ft 456 kts 50°
2026-04-30 10:23 -36.92850 145.80614 27206 ft 459 kts 50°
2026-04-30 10:24 -36.90974 145.83854 27573 ft 462 kts 50°
2026-04-30 10:24 -36.89087 145.87112 27953 ft 464 kts 50°
2026-04-30 10:24 -36.87188 145.90384 28339 ft 467 kts 50°
2026-04-30 10:24 -36.85279 145.93673 28726 ft 469 kts 50°
2026-04-30 10:25 -36.83356 145.96982 29108 ft 472 kts 50°
2026-04-30 10:25 -36.81424 146.00299 29524 ft 473 kts 50°
2026-04-30 10:25 -36.79492 146.03612 30079 ft 471 kts 50°
2026-04-30 10:25 -36.77566 146.06913 30614 ft 470 kts 50°
2026-04-30 10:26 -36.75639 146.10209 31084 ft 469 kts 50°
2026-04-30 10:26 -36.73746 146.13448 31318 ft 469 kts 50°
2026-04-30 10:26 -36.69910 146.20010 31382 ft 467 kts 50°
2026-04-30 10:27 -36.66082 146.26544 31383 ft 467 kts 50°
2026-04-30 10:27 -36.62245 146.33068 31369 ft 466 kts 50°
2026-04-30 10:28 -36.58415 146.39567 31386 ft 465 kts 50°
2026-04-30 10:28 -36.54583 146.46055 31378 ft 465 kts 50°
2026-04-30 10:29 -36.50782 146.52487 31376 ft 465 kts 50°
2026-04-30 10:29 -36.46951 146.58962 31380 ft 464 kts 50°
2026-04-30 10:30 -36.43126 146.65424 31385 ft 464 kts 50°
2026-04-30 10:30 -36.39298 146.71868 31380 ft 464 kts 50°
2026-04-30 10:31 -36.35455 146.78301 31384 ft 464 kts 50°
2026-04-30 10:31 -36.31621 146.84719 31385 ft 463 kts 50°
2026-04-30 10:32 -36.27808 146.91089 31379 ft 463 kts 50°
2026-04-30 10:32 -36.23977 146.97491 31390 ft 463 kts 50°
2026-04-30 10:33 -36.20141 147.03887 31379 ft 462 kts 50°
2026-04-30 10:33 -36.16308 147.10273 31387 ft 462 kts 50°
2026-04-30 10:34 -36.12494 147.16615 31387 ft 462 kts 50°
2026-04-30 10:34 -36.08646 147.22987 31391 ft 463 kts 50°
2026-04-30 10:35 -36.04787 147.29358 31393 ft 463 kts 50°
2026-04-30 10:35 -36.00932 147.35722 31394 ft 463 kts 50°
2026-04-30 10:36 -35.97068 147.42082 31399 ft 463 kts 51°
2026-04-30 10:36 -35.93229 147.48390 31403 ft 463 kts 50°
2026-04-30 10:37 -35.89363 147.54742 31411 ft 463 kts 51°
2026-04-30 10:37 -35.85634 147.61210 31417 ft 465 kts 58°
2026-04-30 10:38 -35.83348 147.68690 31415 ft 471 kts 77°
2026-04-30 10:38 -35.82483 147.76711 31421 ft 473 kts 81°
2026-04-30 10:39 -35.81654 147.84756 31420 ft 473 kts 81°
2026-04-30 10:39 -35.81239 147.88727 31098 ft 474 kts 81°
2026-04-30 10:39 -35.80816 147.92754 30747 ft 475 kts 81°
2026-04-30 10:40 -35.80393 147.96790 30155 ft 476 kts 81°
2026-04-30 10:40 -35.79969 148.00838 29089 ft 478 kts 81°
2026-04-30 10:40 -35.79544 148.04920 27926 ft 482 kts 81°
2026-04-30 10:40 -35.79118 148.09023 26788 ft 484 kts 81°
2026-04-30 10:41 -35.78692 148.13138 25711 ft 486 kts 81°
2026-04-30 10:41 -35.78260 148.17271 24675 ft 486 kts 81°
2026-04-30 10:41 -35.77825 148.21392 23578 ft 485 kts 81°
2026-04-30 10:41 -35.77389 148.25500 22450 ft 482 kts 81°
2026-04-30 10:42 -35.76964 148.29519 21512 ft 465 kts 81°
2026-04-30 10:42 -35.76557 148.33373 20726 ft 458 kts 81°
2026-04-30 10:42 -35.76147 148.37245 19875 ft 453 kts 81°
2026-04-30 10:42 -35.75743 148.41030 19037 ft 436 kts 80°
2026-04-30 10:43 -35.75347 148.44719 18165 ft 432 kts 80°
2026-04-30 10:43 -35.74953 148.48363 17483 ft 425 kts 81°
2026-04-30 10:43 -35.74568 148.51932 16817 ft 418 kts 81°
2026-04-30 10:43 -35.74184 148.55458 16122 ft 414 kts 81°
2026-04-30 10:44 -35.73770 148.58953 15447 ft 410 kts 77°
2026-04-30 10:44 -35.73002 148.62253 14778 ft 404 kts 69°
2026-04-30 10:44 -35.72036 148.65486 14058 ft 401 kts 69°
2026-04-30 10:44 -35.71079 148.68693 13326 ft 398 kts 69°
2026-04-30 10:45 -35.70130 148.71882 12392 ft 399 kts 69°
2026-04-30 10:45 -35.69184 148.75069 11790 ft 392 kts 69°
2026-04-30 10:45 -35.68257 148.78195 11178 ft 385 kts 69°
2026-04-30 10:45 -35.67348 148.81261 10749 ft 379 kts 69°
2026-04-30 10:46 -35.66441 148.84318 10515 ft 381 kts 69°
2026-04-30 10:46 -35.65530 148.87374 10271 ft 381 kts 70°
2026-04-30 10:46 -35.64632 148.90384 10013 ft 379 kts 69°
2026-04-30 10:46 -35.63726 148.93418 9856 ft 378 kts 69°
2026-04-30 10:47 -35.62820 148.96444 9723 ft 377 kts 69°
2026-04-30 10:47 -35.61925 148.99420 9589 ft 362 kts 69°
2026-04-30 10:47 -35.61091 149.02195 9432 ft 330 kts 69°
2026-04-30 10:47 -35.60319 149.04762 9032 ft 311 kts 69°
2026-04-30 10:48 -35.59587 149.07186 8574 ft 297 kts 68°
2026-04-30 10:48 -35.58855 149.09516 8023 ft 289 kts 68°
2026-04-30 10:48 -35.58123 149.11793 7413 ft 285 kts 67°
2026-04-30 10:48 -35.57393 149.14035 6811 ft 281 kts 67°
2026-04-30 10:49 -35.56571 149.16161 6452 ft 266 kts 54°
2026-04-30 10:49 -35.55399 149.17760 6409 ft 242 kts 38°
2026-04-30 10:49 -35.54032 149.18812 6225 ft 232 kts 23°
2026-04-30 10:49 -35.52505 149.19368 5958 ft 226 kts
2026-04-30 10:50 -35.50986 149.19445 5684 ft 212 kts
2026-04-30 10:50 -35.49540 149.19445 5413 ft 204 kts
2026-04-30 10:50 -35.48144 149.19445 5150 ft 196 kts
2026-04-30 10:50 -35.46804 149.19445 4909 ft 190 kts
2026-04-30 10:51 -35.45489 149.19445 4641 ft 188 kts
2026-04-30 10:51 -35.44186 149.19445 4387 ft 186 kts
2026-04-30 10:51 -35.42894 149.19445 4137 ft 184 kts
2026-04-30 10:51 -35.41662 149.19445 3907 ft 171 kts
2026-04-30 10:52 -35.40493 149.19444 3668 ft 166 kts
2026-04-30 10:52 -35.39353 149.19445 3453 ft 159 kts
2026-04-30 10:52 -35.38307 149.19444 3252 ft 145 kts
2026-04-30 10:52 -35.37312 149.19444 3068 ft 141 kts
2026-04-30 10:53 -35.36359 149.19445 2863 ft 138 kts
2026-04-30 10:53 -35.35400 149.19444 2687 ft 138 kts
2026-04-30 10:53 -35.34437 149.19439 2492 ft 139 kts 360°
2026-04-30 10:53 -35.33472 149.19441 2296 ft 139 kts 360°
2026-04-30 10:54 -35.32508 149.19447 2097 ft 138 kts 360°
2026-04-30 10:54 -35.31548 149.19445 1928 ft 138 kts 359°
2026-04-30 10:54 -35.30653 149.19447 1880 ft 108 kts
2026-04-30 10:54 -35.30136 149.19444 1880 ft 38 kts 358°
2026-04-30 10:55 -35.29913 149.19442 1878 ft 31 kts 360°
2026-04-30 10:55 -35.29692 149.19442 1879 ft 32 kts 360°
2026-04-30 10:55 -35.29580 149.19376 1880 ft 15 kts 270°
2026-04-30 10:55 -35.29610 149.19251 1877 ft 17 kts 212°
2026-04-30 10:56 -35.29738 149.19244 1880 ft 20 kts 179°
2026-04-30 10:56 -35.29886 149.19245 1880 ft 22 kts 180°
2026-04-30 10:56 -35.30050 149.19243 1877 ft 25 kts 180°
2026-04-30 10:56 -35.30233 149.19241 1877 ft 28 kts 181°
2026-04-30 10:57 -35.30417 149.19239 1880 ft 25 kts 180°
2026-04-30 10:57 -35.30588 149.19238 1880 ft 18 kts 181°
2026-04-30 10:57 -35.30643 149.19195 1880 ft 5 kts 271°
2026-04-30 10:57 -35.30646 149.19146 1878 ft 6 kts 240°
2026-04-30 10:58 -35.30651 149.19140 1878 ft 0 kts 233°
2026-04-30 10:58 -35.30652 149.19138 1878 ft 1 kts 231°
2026-04-30 10:58 -35.30663 149.19121 1876 ft 4 kts 231°
2026-04-30 10:58 -35.30680 149.19095 1880 ft 0 kts 231°